createdAt,value
2018-12-19T00:01:42.129Z,100534.16
2018-12-19T00:03:50.579Z,100524.64
2018-12-19T00:05:59.365Z,100528.96
2018-12-19T00:08:05.954Z,100528.06
2018-12-19T00:10:12.230Z,100525.46
2018-12-19T00:12:18.498Z,100521.99
2018-12-19T00:14:25.450Z,100512.92
2018-12-19T00:16:31.636Z,100513.80
2018-12-19T00:18:38.811Z,100508.65
2018-12-19T00:20:45.060Z,100517.28
2018-12-19T00:22:51.288Z,100513.35
2018-12-19T00:24:59.539Z,100494.32
2018-12-19T00:27:08.027Z,100503.78
2018-12-19T00:29:16.445Z,100507.23
2018-12-19T00:31:24.706Z,100508.09
2018-12-19T00:33:33.468Z,100510.69
2018-12-19T00:35:42.527Z,100511.56
2018-12-19T00:37:48.834Z,100507.73
2018-12-19T00:39:54.942Z,100515.09
2018-12-19T00:42:01.071Z,100517.25
2018-12-19T00:44:07.382Z,100512.09
2018-12-19T00:46:14.376Z,100517.28
2018-12-19T00:48:20.985Z,100514.28
2018-12-19T00:50:27.190Z,100516.44
2018-12-19T00:52:33.328Z,100507.40
2018-12-19T00:54:40.573Z,100512.12
2018-12-19T00:56:47.093Z,100513.02
2018-12-19T00:58:53.177Z,100516.92
2018-12-19T01:00:59.893Z,100532.48
2018-12-19T01:03:05.980Z,100517.77
2018-12-19T01:05:12.454Z,100521.61
2018-12-19T01:07:19.317Z,100521.61
2018-12-19T01:09:26.251Z,100517.30
2018-12-19T01:11:32.319Z,100508.66
2018-12-19T01:13:38.447Z,100502.16
2018-12-19T01:15:44.773Z,100512.92
2018-12-19T01:17:51.070Z,100511.61
2018-12-19T01:19:58.195Z,100510.70
2018-12-19T01:22:04.654Z,100498.59
2018-12-19T01:24:10.914Z,100499.88
2018-12-19T01:26:17.039Z,100512.38
2018-12-19T01:28:23.158Z,100513.23
2018-12-19T01:30:29.690Z,100511.03
2018-12-19T01:32:36.744Z,100515.73
2018-12-19T01:34:42.943Z,100510.52
2018-12-19T01:36:49.247Z,100513.11
2018-12-19T01:38:55.389Z,100505.75
2018-12-19T01:41:02.173Z,100513.50
2018-12-19T01:43:08.717Z,100506.18
2018-12-19T01:45:16.776Z,100502.68
2018-12-19T01:47:22.849Z,100508.73
2018-12-19T01:49:29.013Z,100506.56
2018-12-19T01:51:36.181Z,100496.61
2018-12-19T01:53:42.850Z,100495.30
2018-12-19T01:55:51.484Z,100510.84
2018-12-19T01:57:57.626Z,100511.70
2018-12-19T02:00:03.943Z,100513.85
2018-12-19T02:02:11.350Z,100512.52
2018-12-19T02:04:17.559Z,100506.94
2018-12-19T02:06:23.881Z,100499.66
2018-12-19T02:08:36.496Z,100501.87
2018-12-19T02:10:45.403Z,100502.36
2018-12-19T02:12:51.686Z,100507.13
2018-12-19T02:14:57.901Z,100502.42
2018-12-19T02:17:04.177Z,100500.30
2018-12-19T02:19:10.731Z,100502.91
2018-12-19T02:21:16.904Z,100507.23
2018-12-19T02:23:23.753Z,100498.16
2018-12-19T02:25:30.445Z,100508.59
2018-12-19T02:27:37.434Z,100507.30
2018-12-19T02:29:44.645Z,100487.89
2018-12-19T02:31:50.865Z,100482.22
2018-12-19T02:33:57.575Z,100484.80
2018-12-19T02:36:03.757Z,100497.30
2018-12-19T02:38:09.889Z,100490.81
2018-12-19T02:40:15.958Z,100488.66
2018-12-19T02:42:22.098Z,100489.51
2018-12-19T02:44:28.838Z,100481.24
2018-12-19T02:46:35.240Z,100484.25
2018-12-19T02:48:41.765Z,100485.98
2018-12-19T02:50:47.949Z,100477.34
2018-12-19T02:52:54.074Z,100466.95
2018-12-19T02:57:23.626Z,100466.11
2018-12-19T02:59:29.790Z,100470.05
2018-12-19T03:01:37.414Z,100476.10
2018-12-19T03:03:44.516Z,100472.20
2018-12-19T03:05:51.076Z,100477.41
2018-12-19T03:07:57.886Z,100471.35
2018-12-19T03:10:04.389Z,100460.55
2018-12-19T03:12:10.548Z,100457.13
2018-12-19T03:14:17.365Z,100451.09
2018-12-19T03:16:23.902Z,100455.40
2018-12-19T03:18:30.775Z,100450.15
2018-12-19T03:20:37.004Z,100447.92
2018-12-19T03:22:43.359Z,100450.91
2018-12-19T03:24:49.598Z,100455.23
2018-12-19T03:26:55.674Z,100452.26
2018-12-19T03:29:02.637Z,100449.73
2018-12-19T03:31:08.766Z,100447.63
2018-12-19T03:33:17.380Z,100448.49
2018-12-19T03:35:23.907Z,100454.59
2018-12-19T03:37:30.266Z,100458.06
2018-12-19T03:39:36.548Z,100456.33
2018-12-19T03:41:42.773Z,100455.90
2018-12-19T03:43:49.484Z,100461.09
2018-12-19T03:45:56.261Z,100456.81
2018-12-19T03:48:02.586Z,100451.64
2018-12-19T03:50:10.688Z,100465.09
2018-12-19T03:52:16.954Z,100464.23
2018-12-19T03:54:23.432Z,100462.94
2018-12-19T03:56:30.360Z,100456.06
2018-12-19T03:58:36.435Z,100466.84
2018-12-19T04:00:42.649Z,100459.09
2018-12-19T04:02:48.724Z,100455.66
2018-12-19T04:04:54.852Z,100455.66
2018-12-19T04:07:00.970Z,100453.05
2018-12-19T04:09:08.312Z,100446.95
2018-12-19T04:11:14.628Z,100451.21
2018-12-19T04:13:21.416Z,100454.61
2018-12-19T04:15:28.009Z,100464.48
2018-12-19T04:17:34.908Z,100466.23
2018-12-19T04:19:41.760Z,100461.52
2018-12-19T04:21:50.013Z,100466.34
2018-12-19T04:23:56.247Z,100473.30
2018-12-19T04:26:02.379Z,100467.31
2018-12-19T04:28:08.577Z,100459.97
2018-12-19T04:30:14.623Z,100459.53
2018-12-19T04:32:20.931Z,100469.91
2018-12-19T04:34:27.376Z,100475.52
2018-12-19T04:36:33.417Z,100475.05
2018-12-19T04:38:40.519Z,100483.27
2018-12-19T04:40:46.605Z,100491.95
2018-12-19T04:42:52.668Z,100488.06
2018-12-19T04:44:59.632Z,100486.72
2018-12-19T04:47:06.436Z,100489.26
2018-12-19T04:49:13.364Z,100489.24
2018-12-19T04:51:19.663Z,100488.37
2018-12-19T04:53:25.828Z,100488.39
2018-12-19T04:55:31.933Z,100492.72
2018-12-19T04:57:38.105Z,100497.89
2018-12-19T04:59:44.219Z,100494.82
2018-12-19T05:01:50.297Z,100487.02
2018-12-19T05:03:56.550Z,100480.97
2018-12-19T05:06:05.507Z,100476.16
2018-12-19T05:08:11.716Z,100479.57
2018-12-19T05:10:17.945Z,100474.82
2018-12-19T05:12:23.994Z,100484.75
2018-12-19T05:14:31.294Z,100475.68
2018-12-19T05:16:37.802Z,100487.78
2018-12-19T05:18:44.089Z,100490.76
2018-12-19T05:20:53.006Z,100483.38
2018-12-19T05:22:59.134Z,100481.17
2018-12-19T05:25:06.126Z,100479.45
2018-12-19T05:27:12.300Z,100476.86
2018-12-19T05:29:18.463Z,100473.88
2018-12-19T05:31:24.728Z,100471.28
2018-12-19T05:35:49.131Z,100470.80
2018-12-19T05:37:55.469Z,100470.36
2018-12-19T05:40:01.809Z,100475.11
2018-12-19T05:42:07.978Z,100482.84
2018-12-19T05:44:14.880Z,100478.92
2018-12-19T05:46:22.790Z,100474.13
2018-12-19T05:48:28.899Z,100479.73
2018-12-19T05:50:35.740Z,100485.31
2018-12-19T05:52:41.936Z,100477.53
2018-12-19T05:54:48.441Z,100484.44
2018-12-19T05:56:54.562Z,100479.24
2018-12-19T05:59:00.838Z,100480.92
2018-12-19T06:01:11.684Z,100479.62
2018-12-19T06:03:21.630Z,100470.95
2018-12-19T06:05:28.067Z,100473.54
2018-12-19T06:07:34.122Z,100471.81
2018-12-19T06:09:40.549Z,100476.95
2018-12-19T06:11:46.642Z,100474.77
2018-12-19T06:13:55.306Z,100478.61
2018-12-19T06:16:02.081Z,100482.06
2018-12-19T06:18:08.184Z,100482.02
2018-12-19T06:20:15.005Z,100487.64
2018-12-19T06:22:21.476Z,100487.64
2018-12-19T06:24:27.907Z,100477.68
2018-12-19T06:26:35.859Z,100473.34
2018-12-19T06:28:41.932Z,100469.83
2018-12-19T06:30:48.664Z,100458.18
2018-12-19T06:32:55.536Z,100446.52
2018-12-19T06:35:01.722Z,100451.33
2018-12-19T06:37:09.134Z,100453.92
2018-12-19T06:39:16.222Z,100452.58
2018-12-19T06:41:23.724Z,100453.37
2018-12-19T06:43:29.807Z,100455.52
2018-12-19T06:45:36.929Z,100462.80
2018-12-19T06:47:43.206Z,100457.13
2018-12-19T06:49:49.433Z,100467.91
2018-12-19T06:51:55.564Z,100466.63
2018-12-19T06:54:01.765Z,100454.08
2018-12-19T06:56:08.030Z,100462.32
2018-12-19T06:58:14.090Z,100466.71
2018-12-19T07:00:20.585Z,100477.16
2018-12-19T07:02:27.592Z,100476.36
2018-12-19T07:04:33.746Z,100462.95
2018-12-19T07:06:39.872Z,100458.19
2018-12-19T07:08:46.075Z,100461.22
2018-12-19T07:10:52.371Z,100468.09
2018-12-19T07:13:01.415Z,100476.31
2018-12-19T07:15:08.134Z,100469.00
2018-12-19T07:17:14.316Z,100483.72
2018-12-19T07:19:20.634Z,100480.70
2018-12-19T07:21:28.314Z,100485.91
2018-12-19T07:23:34.563Z,100474.70
2018-12-19T07:25:41.145Z,100482.06
2018-12-19T07:27:48.110Z,100484.18
2018-12-19T07:29:54.228Z,100491.97
2018-12-19T07:32:00.537Z,100508.45
2018-12-19T07:34:07.082Z,100511.50
2018-12-19T07:36:13.373Z,100498.14
2018-12-19T07:38:19.617Z,100506.36
2018-12-19T07:40:26.102Z,100502.42
2018-12-19T07:42:34.391Z,100490.30
2018-12-19T07:44:41.648Z,100497.59
2018-12-19T07:46:47.732Z,100495.84
2018-12-19T07:48:54.000Z,100501.78
2018-12-19T07:51:00.274Z,100492.62
2018-12-19T07:53:06.614Z,100508.19
2018-12-19T07:55:13.253Z,100501.20
2018-12-19T07:57:19.549Z,100510.70
2018-12-19T07:59:25.967Z,100509.35
2018-12-19T08:01:32.154Z,100508.86
2018-12-19T08:03:38.244Z,100509.70
2018-12-19T08:05:44.561Z,100508.83
2018-12-19T08:07:50.648Z,100496.65
2018-12-19T08:09:57.681Z,100498.75
2018-12-19T08:12:03.856Z,100502.20
2018-12-19T08:14:10.768Z,100503.47
2018-12-19T08:16:17.298Z,100507.37
2018-12-19T08:18:24.173Z,100509.97
2018-12-19T08:20:32.089Z,100512.09
2018-12-19T08:22:38.853Z,100512.95
2018-12-19T08:24:45.041Z,100509.48
2018-12-19T08:26:53.396Z,100518.99
2018-12-19T08:29:01.964Z,100512.50
2018-12-19T08:31:09.713Z,100512.89
2018-12-19T08:33:16.173Z,100505.08
2018-12-19T08:35:22.501Z,100494.66
2018-12-19T08:37:29.030Z,100499.73
2018-12-19T08:39:35.562Z,100491.89
2018-12-19T08:41:43.544Z,100489.24
2018-12-19T08:43:49.857Z,100493.11
2018-12-19T08:45:58.209Z,100487.83
2018-12-19T08:48:04.977Z,100500.81
2018-12-19T08:50:13.116Z,100478.06
2018-12-19T08:52:19.530Z,100502.13
2018-12-19T08:54:26.782Z,100496.92
2018-12-19T08:56:33.033Z,100505.95
2018-12-19T08:58:39.546Z,100509.84
2018-12-19T09:00:45.970Z,100508.91
2018-12-19T09:02:52.111Z,100510.20
2018-12-19T09:04:58.299Z,100511.87
2018-12-19T09:07:04.513Z,100508.39
2018-12-19T09:09:10.856Z,100509.23
2018-12-19T09:11:17.187Z,100507.88
2018-12-19T09:13:26.633Z,100501.36
2018-12-19T09:15:38.613Z,100502.23
2018-12-19T09:17:45.829Z,100491.30
2018-12-19T09:19:52.411Z,100500.76
2018-12-19T09:21:58.859Z,100497.70
2018-12-19T09:24:07.151Z,100505.09
2018-12-19T09:26:13.417Z,100507.70
2018-12-19T09:28:19.761Z,100500.76
2018-12-19T09:30:26.040Z,100497.66
2018-12-19T09:32:32.217Z,100498.90
2018-12-19T09:34:38.487Z,100497.95
2018-12-19T09:36:45.935Z,100502.23
2018-12-19T09:38:52.082Z,100506.97
2018-12-19T09:40:58.194Z,100497.87
2018-12-19T09:43:04.565Z,100504.41
2018-12-19T09:45:13.569Z,100496.60
2018-12-19T09:47:19.897Z,100493.12
2018-12-19T09:49:26.046Z,100498.73
2018-12-19T09:51:33.531Z,100501.31
2018-12-19T09:53:41.594Z,100486.52
2018-12-19T09:55:47.929Z,100485.23
2018-12-19T09:57:54.193Z,100492.14
2018-12-19T10:00:00.515Z,100498.64
2018-12-19T10:02:08.901Z,100498.20
2018-12-19T10:04:15.894Z,100489.95
2018-12-19T10:06:22.080Z,100490.33
2018-12-19T10:08:35.283Z,100492.05
2018-12-19T10:13:09.445Z,100495.86
2018-12-19T10:15:16.273Z,100508.79
2018-12-19T10:17:30.236Z,100510.95
2018-12-19T10:19:36.560Z,100507.01
2018-12-19T10:21:43.478Z,100505.20
2018-12-19T10:23:53.010Z,100505.13
2018-12-19T10:26:04.135Z,100507.67
2018-12-19T10:28:14.961Z,100505.44
2018-12-19T10:30:28.662Z,100497.13
2018-12-19T10:32:40.578Z,100493.61
2018-12-19T10:34:46.730Z,100493.96
2018-12-19T10:36:53.080Z,100486.49
2018-12-19T10:39:00.327Z,100477.36
2018-12-19T10:41:06.583Z,100481.20
2018-12-19T10:43:13.753Z,100472.91
2018-12-19T10:45:21.698Z,100472.41
2018-12-19T10:47:29.381Z,100474.11
2018-12-19T10:49:35.715Z,100478.38
2018-12-19T10:51:42.978Z,100481.83
2018-12-19T10:53:49.236Z,100479.22
2018-12-19T10:55:55.773Z,100478.80
2018-12-19T10:58:02.573Z,100474.87
2018-12-19T11:00:18.064Z,100467.06
2018-12-19T11:02:24.274Z,100458.28
2018-12-19T11:04:30.470Z,100454.72
2018-12-19T11:06:37.361Z,100458.55
2018-12-19T11:08:45.379Z,100460.19
2018-12-19T11:10:51.585Z,100455.76
2018-12-19T11:12:58.839Z,100450.55
2018-12-19T11:17:28.890Z,100449.27
2018-12-19T11:19:37.770Z,100448.47
2018-12-19T11:21:44.059Z,100445.47
2018-12-19T11:23:51.139Z,100435.93
2018-12-19T11:25:57.226Z,100433.38
2018-12-19T11:28:03.404Z,100444.58
2018-12-19T11:30:10.627Z,100446.66
2018-12-19T11:32:17.535Z,100443.13
2018-12-19T11:34:26.975Z,100427.82
2018-12-19T11:36:34.064Z,100417.76
2018-12-19T11:38:41.972Z,100411.24
2018-12-19T11:40:48.441Z,100406.00
2018-12-19T11:42:54.695Z,100405.53
2018-12-19T11:45:02.251Z,100405.45
2018-12-19T11:47:08.350Z,100404.98
2018-12-19T11:49:15.457Z,100410.96
2018-12-19T11:51:21.665Z,100406.61
2018-12-19T11:53:27.958Z,100411.80
2018-12-19T11:55:34.652Z,100401.70
2018-12-19T11:57:41.899Z,100404.16
2018-12-19T11:59:49.050Z,100409.62
2018-12-19T12:01:55.189Z,100407.30
2018-12-19T12:04:03.258Z,100404.20
2018-12-19T12:06:12.128Z,100410.51
2018-12-19T12:08:21.593Z,100412.14
2018-12-19T12:10:27.842Z,100412.94
2018-12-19T12:12:36.256Z,100408.48
2018-12-19T12:14:42.356Z,100401.43
2018-12-19T12:16:48.509Z,100397.45
2018-12-19T12:18:55.546Z,100393.89
2018-12-19T12:21:02.841Z,100386.89
2018-12-19T12:23:12.132Z,100391.66
2018-12-19T12:25:18.489Z,100379.48
2018-12-19T12:27:24.592Z,100383.80
2018-12-19T12:29:31.030Z,100376.36
2018-12-19T12:31:37.238Z,100372.00
2018-12-19T12:33:43.387Z,100373.75
2018-12-19T12:35:50.770Z,100366.84
2018-12-19T12:37:57.623Z,100362.11
2018-12-19T12:40:05.457Z,100355.14
2018-12-19T12:42:13.103Z,100356.86
2018-12-19T12:44:19.922Z,100354.59
2018-12-19T12:46:26.112Z,100351.51
2018-12-19T12:48:32.248Z,100345.43
2018-12-19T12:50:38.379Z,100345.84
2018-12-19T12:52:44.559Z,100340.98
2018-12-19T12:54:50.704Z,100329.64
2018-12-19T12:56:56.935Z,100336.52
2018-12-19T12:59:03.233Z,100345.62
2018-12-19T13:01:09.681Z,100332.53
2018-12-19T13:03:15.951Z,100330.34
2018-12-19T13:05:24.393Z,100329.48
2018-12-19T13:07:30.692Z,100332.05
2018-12-19T13:09:36.808Z,100337.20
2018-12-19T13:11:43.109Z,100330.66
2018-12-19T13:13:49.367Z,100333.16
2018-12-19T13:15:55.763Z,100337.08
2018-12-19T13:18:02.619Z,100326.19
2018-12-19T13:20:08.736Z,100336.15
2018-12-19T13:22:14.947Z,100332.20
2018-12-19T13:24:21.093Z,100328.73
2018-12-19T13:26:27.215Z,100328.77
2018-12-19T13:28:33.591Z,100325.30
2018-12-19T13:30:39.763Z,100321.41
2018-12-19T13:32:47.389Z,100317.16
2018-12-19T13:34:54.611Z,100307.64
2018-12-19T13:37:01.311Z,100302.48
2018-12-19T13:39:08.703Z,100302.94
2018-12-19T13:41:14.907Z,100299.02
2018-12-19T13:43:21.045Z,100300.77
2018-12-19T13:45:27.963Z,100296.41
2018-12-19T13:47:34.259Z,100297.30
2018-12-19T13:49:40.411Z,100296.48
2018-12-19T13:51:46.574Z,100287.00
2018-12-19T13:53:53.178Z,100290.53
2018-12-19T13:55:59.356Z,100283.16
2018-12-19T13:58:07.178Z,100280.17
2018-12-19T14:00:15.055Z,100280.99
2018-12-19T14:02:21.231Z,100277.56
2018-12-19T14:04:27.753Z,100273.16
2018-12-19T14:06:34.029Z,100278.90
2018-12-19T14:08:40.967Z,100276.83
2018-12-19T14:10:48.461Z,100283.80
2018-12-19T14:12:54.598Z,100288.09
2018-12-19T14:15:00.955Z,100286.41
2018-12-19T14:17:07.245Z,100282.16
2018-12-19T14:19:13.666Z,100286.52
2018-12-19T14:21:19.947Z,100288.36
2018-12-19T14:23:26.277Z,100299.75
2018-12-19T14:25:32.474Z,100302.84
2018-12-19T14:27:38.633Z,100300.13
2018-12-19T14:29:44.807Z,100294.91
2018-12-19T14:31:51.434Z,100295.74
2018-12-19T14:33:58.204Z,100293.10
2018-12-19T14:36:05.103Z,100284.38
2018-12-19T14:38:11.281Z,100291.66
2018-12-19T14:40:17.463Z,100292.52
2018-12-19T14:42:23.598Z,100286.34
2018-12-19T14:46:48.895Z,100296.34
2018-12-19T14:48:55.420Z,100296.75
2018-12-19T14:51:02.842Z,100287.20
2018-12-19T14:53:09.306Z,100285.97
2018-12-19T14:55:15.616Z,100281.64
2018-12-19T14:57:21.990Z,100287.78
2018-12-19T14:59:28.148Z,100286.48
2018-12-19T15:01:34.435Z,100283.87
2018-12-19T15:03:40.575Z,100284.28
2018-12-19T15:05:46.718Z,100287.75
2018-12-19T15:07:53.667Z,100287.75
2018-12-19T15:10:00.047Z,100283.84
2018-12-19T15:12:06.335Z,100279.92
2018-12-19T15:14:13.284Z,100278.66
2018-12-19T15:16:23.782Z,100282.56
2018-12-19T15:18:30.031Z,100288.67
2018-12-19T15:20:36.372Z,100287.44
2018-12-19T15:22:42.609Z,100284.10
2018-12-19T15:24:48.814Z,100295.77
2018-12-19T15:26:54.948Z,100288.39
2018-12-19T15:29:01.705Z,100286.71
2018-12-19T15:31:07.990Z,100288.91
2018-12-19T15:33:14.241Z,100292.78
2018-12-19T15:35:20.367Z,100292.69
2018-12-19T15:37:26.515Z,100291.73
2018-12-19T15:39:32.772Z,100291.70
2018-12-19T15:41:39.017Z,100291.66
2018-12-19T15:43:45.131Z,100300.31
2018-12-19T15:45:51.852Z,100294.17
2018-12-19T15:47:59.074Z,100295.03
2018-12-19T15:50:07.187Z,100292.84
2018-12-19T15:52:13.540Z,100293.73
2018-12-19T15:54:20.281Z,100290.26
2018-12-19T15:56:26.497Z,100289.91
2018-12-19T15:58:33.260Z,100290.84
2018-12-19T16:00:39.578Z,100301.69
2018-12-19T16:02:46.821Z,100306.91
2018-12-19T16:04:53.142Z,100311.23
2018-12-19T16:06:59.812Z,100302.06
2018-12-19T16:09:08.382Z,100305.91
2018-12-19T16:11:14.715Z,100306.36
2018-12-19T16:13:21.244Z,100305.44
2018-12-19T16:15:27.588Z,100299.36
2018-12-19T16:17:34.088Z,100303.69
2018-12-19T16:19:40.438Z,100293.70
2018-12-19T16:21:47.235Z,100291.50
2018-12-19T16:23:53.653Z,100290.23
2018-12-19T16:25:59.929Z,100289.81
2018-12-19T16:28:06.338Z,100282.40
2018-12-19T16:30:13.375Z,100283.25
2018-12-19T16:32:20.090Z,100281.92
2018-12-19T16:34:26.305Z,100281.92
2018-12-19T16:36:32.640Z,100289.75
2018-12-19T16:38:38.930Z,100284.46
2018-12-19T16:40:45.379Z,100287.48
2018-12-19T16:42:51.679Z,100291.81
2018-12-19T16:44:58.767Z,100295.69
2018-12-19T16:47:05.223Z,100299.16
2018-12-19T16:49:11.599Z,100298.23
2018-12-19T16:51:17.845Z,100300.80
2018-12-19T16:53:24.105Z,100295.55
2018-12-19T16:55:30.274Z,100294.25
2018-12-19T16:57:36.441Z,100291.61
2018-12-19T16:59:43.432Z,100293.80
2018-12-19T17:01:51.158Z,100292.91
2018-12-19T17:03:57.883Z,100288.58
2018-12-19T17:06:04.097Z,100306.41
2018-12-19T17:08:10.509Z,100294.22
2018-12-19T17:10:16.884Z,100292.84
2018-12-19T17:12:23.092Z,100298.51
2018-12-19T17:14:29.904Z,100295.52
2018-12-19T17:16:36.102Z,100294.22
2018-12-19T17:18:42.273Z,100295.52
2018-12-19T17:20:49.890Z,100297.72
2018-12-19T17:22:56.321Z,100303.38
2018-12-19T17:25:02.588Z,100300.91
2018-12-19T17:27:09.135Z,100302.66
2018-12-19T17:29:15.193Z,100297.92
2018-12-19T17:31:21.713Z,100304.89
2018-12-19T17:33:28.080Z,100313.23
2018-12-19T17:35:34.184Z,100310.27
2018-12-19T17:37:40.396Z,100308.97
2018-12-19T17:39:46.407Z,100303.75
2018-12-19T17:41:52.706Z,100309.83
2018-12-19T17:43:59.179Z,100323.39
2018-12-19T17:46:06.009Z,100313.88
2018-12-19T17:48:12.101Z,100325.61
2018-12-19T17:50:19.461Z,100322.69
2018-12-19T17:52:26.231Z,100323.61
2018-12-19T17:54:32.395Z,100322.44
2018-12-19T17:56:38.979Z,100323.42
2018-12-19T17:58:45.125Z,100325.27
2018-12-19T18:00:53.349Z,100318.37
2018-12-19T18:02:59.607Z,100318.43
2018-12-19T18:05:06.269Z,100316.74
2018-12-19T18:07:12.547Z,100318.87
2018-12-19T18:11:39.549Z,100310.22
2018-12-19T18:13:46.027Z,100323.23
2018-12-19T18:15:52.448Z,100322.91
2018-12-19T18:17:58.574Z,100320.33
2018-12-19T18:20:06.142Z,100324.69
2018-12-19T18:22:12.195Z,100323.39
2018-12-19T18:24:18.371Z,100324.66
2018-12-19T18:26:24.500Z,100316.90
2018-12-19T18:28:30.698Z,100320.37
2018-12-19T18:30:37.933Z,100321.23
2018-12-19T18:32:44.323Z,100317.76
2018-12-19T18:34:51.114Z,100311.27
2018-12-19T18:36:57.389Z,100309.59
2018-12-19T18:39:05.614Z,100312.64
2018-12-19T18:41:12.958Z,100308.31
2018-12-19T18:43:19.149Z,100313.88
2018-12-19T18:45:26.247Z,100318.30
2018-12-19T18:47:34.601Z,100310.95
2018-12-19T18:49:40.764Z,100310.06
2018-12-19T18:51:47.121Z,100308.75
2018-12-19T18:53:53.521Z,100310.06
2018-12-19T18:55:59.901Z,100306.50
2018-12-19T18:58:07.207Z,100309.91
2018-12-19T19:02:38.373Z,100303.70
2018-12-19T19:04:44.693Z,100306.31
2018-12-19T19:06:51.089Z,100301.92
2018-12-19T19:08:57.559Z,100298.88
2018-12-19T19:11:03.818Z,100304.88
2018-12-19T19:13:10.096Z,100302.27
2018-12-19T19:15:16.344Z,100296.58
2018-12-19T19:17:22.603Z,100307.87
2018-12-19T19:21:46.586Z,100305.33
2018-12-19T19:23:54.231Z,100301.00
2018-12-19T19:26:00.538Z,100298.45
2018-12-19T19:28:06.748Z,100304.18
2018-12-19T19:30:13.203Z,100299.92
2018-12-19T19:32:19.484Z,100296.48
2018-12-19T19:34:26.494Z,100301.34
2018-12-19T19:36:33.342Z,100297.12
2018-12-19T19:38:39.646Z,100302.84
2018-12-19T19:40:45.871Z,100301.66
2018-12-19T19:45:09.688Z,100305.54
2018-12-19T19:47:15.792Z,100299.81
2018-12-19T19:49:22.152Z,100302.39
2018-12-19T19:51:28.372Z,100302.91
2018-12-19T19:53:34.567Z,100301.19
2018-12-19T19:55:40.976Z,100301.22
2018-12-19T19:57:47.105Z,100293.42
2018-12-19T19:59:53.395Z,100299.59
2018-12-19T20:01:59.798Z,100297.84
2018-12-19T20:04:06.046Z,100290.41
2018-12-19T20:06:12.391Z,100289.09
2018-12-19T20:08:18.577Z,100289.03
2018-12-19T20:10:24.847Z,100290.69
2018-12-19T20:12:31.752Z,100293.72
2018-12-19T20:14:37.911Z,100292.80
2018-12-19T20:16:49.359Z,100295.40
2018-12-19T20:18:55.568Z,100285.00
2018-12-19T20:21:01.764Z,100286.31
2018-12-19T20:23:08.056Z,100293.68
2018-12-19T20:25:14.179Z,100288.88
2018-12-19T20:27:21.404Z,100298.36
2018-12-19T20:29:27.738Z,100289.20
2018-12-19T20:31:33.903Z,100286.50
2018-12-19T20:33:40.254Z,100283.41
2018-12-19T20:35:46.419Z,100286.34
2018-12-19T20:37:52.638Z,100282.40
2018-12-19T20:39:58.923Z,100280.23
2018-12-19T20:42:05.735Z,100278.93
2018-12-19T20:44:12.090Z,100275.84
2018-12-19T20:46:18.304Z,100272.79
2018-12-19T20:48:24.472Z,100274.92
2018-12-19T20:50:31.546Z,100279.69
2018-12-19T20:52:38.002Z,100280.99
2018-12-19T20:54:44.159Z,100280.99
2018-12-19T20:56:54.655Z,100281.51
2018-12-19T20:59:00.835Z,100279.41
2018-12-19T21:01:07.113Z,100288.22
2018-12-19T21:03:13.621Z,100277.44
2018-12-19T21:05:19.723Z,100278.77
2018-12-19T21:07:26.221Z,100271.84
2018-12-19T21:09:32.497Z,100287.07
2018-12-19T21:11:38.821Z,100286.34
2018-12-19T21:13:46.863Z,100281.69
2018-12-19T21:15:53.947Z,100283.12
2018-12-19T21:18:05.747Z,100277.11
2018-12-19T21:20:11.839Z,100279.81
2018-12-19T21:22:18.127Z,100279.48
2018-12-19T21:24:24.418Z,100272.65
2018-12-19T21:26:30.563Z,100270.93
2018-12-19T21:28:36.830Z,100270.87
2018-12-19T21:30:42.957Z,100269.48
2018-12-19T21:32:49.226Z,100266.42
2018-12-19T21:34:55.538Z,100270.69
2018-12-19T21:37:03.020Z,100265.89
2018-12-19T21:39:11.796Z,100264.17
2018-12-19T21:41:17.960Z,100267.61
2018-12-19T21:43:24.737Z,100257.15
2018-12-19T21:45:30.873Z,100260.61
2018-12-19T21:47:37.096Z,100257.15
2018-12-19T21:49:43.256Z,100261.53
2018-12-19T21:51:49.526Z,100257.20
2018-12-19T21:53:55.745Z,100271.98
2018-12-19T21:56:02.793Z,100264.59
2018-12-19T21:58:09.564Z,100264.59
2018-12-19T22:00:19.346Z,100267.58
2018-12-19T22:02:25.924Z,100272.73
2018-12-19T22:04:32.286Z,100276.19
2018-12-19T22:06:38.592Z,100279.59
2018-12-19T22:08:45.720Z,100283.50
2018-12-19T22:10:52.653Z,100269.29
2018-12-19T22:12:58.887Z,100275.11
2018-12-19T22:15:06.112Z,100281.20
2018-12-19T22:17:17.367Z,100277.27
2018-12-19T22:19:23.639Z,100279.30
2018-12-19T22:23:59.795Z,100275.14
2018-12-19T22:26:06.083Z,100277.28
2018-12-19T22:28:13.190Z,100273.30
2018-12-19T22:30:19.826Z,100278.58
2018-12-19T22:32:26.171Z,100275.59
2018-12-19T22:34:32.378Z,100276.92
2018-12-19T22:36:38.574Z,100274.41
2018-12-19T22:38:44.733Z,100278.73
2018-12-19T22:40:51.003Z,100280.09
2018-12-19T22:42:57.150Z,100287.13
2018-12-19T22:45:04.322Z,100280.64
2018-12-19T22:47:11.107Z,100284.08
2018-12-19T22:49:17.554Z,100273.14
2018-12-19T22:51:23.799Z,100272.63
2018-12-19T22:53:30.712Z,100276.00
2018-12-19T22:55:37.020Z,100279.44
2018-12-19T22:57:43.188Z,100278.07
2018-12-19T22:59:50.673Z,100277.63
2018-12-19T23:02:02.105Z,100274.16
2018-12-19T23:04:08.764Z,100272.51
2018-12-19T23:06:16.997Z,100271.68
2018-12-19T23:08:23.697Z,100276.48
2018-12-19T23:10:30.039Z,100282.94
2018-12-19T23:12:36.380Z,100277.21
2018-12-19T23:14:43.057Z,100282.40
2018-12-19T23:16:54.780Z,100275.05
2018-12-19T23:19:06.663Z,100274.25
2018-12-19T23:21:18.518Z,100278.61
2018-12-19T23:23:30.802Z,100274.28
2018-12-19T23:25:42.396Z,100278.61
2018-12-19T23:27:50.633Z,100274.28
2018-12-19T23:29:56.884Z,100270.47
2018-12-19T23:34:28.372Z,100278.06
2018-12-19T23:36:35.335Z,100275.58
2018-12-19T23:38:41.990Z,100283.91
2018-12-19T23:40:48.425Z,100275.70
2018-12-19T23:42:54.652Z,100283.48
2018-12-19T23:45:01.870Z,100288.25
2018-12-19T23:47:08.231Z,100286.89
2018-12-19T23:49:14.646Z,100293.38
2018-12-19T23:51:20.891Z,100287.69
2018-12-19T23:53:27.019Z,100295.42
2018-12-19T23:55:38.713Z,100287.57
2018-12-19T23:57:44.770Z,100281.81
2018-12-19T23:59:51.654Z,100278.67
